sensor_id;sensor_type;location;lat;lon;timestamp;P1;durP1;ratioP1;P2;durP2;ratioP2
12181;SDS011;6154;51.550;12.138;2023-05-10T00:01:44;2.85;;;2.55;;
12181;SDS011;6154;51.550;12.138;2023-05-10T00:04:12;4.32;;;2.55;;
12181;SDS011;6154;51.550;12.138;2023-05-10T00:06:40;2.92;;;2.55;;
12181;SDS011;6154;51.550;12.138;2023-05-10T00:09:08;4.18;;;2.50;;
12181;SDS011;6154;51.550;12.138;2023-05-10T00:11:37;4.07;;;2.70;;
12181;SDS011;6154;51.550;12.138;2023-05-10T00:14:06;4.12;;;2.80;;
12181;SDS011;6154;51.550;12.138;2023-05-10T00:16:35;4.72;;;2.95;;
12181;SDS011;6154;51.550;12.138;2023-05-10T00:19:04;3.10;;;2.37;;
12181;SDS011;6154;51.550;12.138;2023-05-10T00:21:32;2.80;;;2.45;;
12181;SDS011;6154;51.550;12.138;2023-05-10T00:24:00;4.05;;;2.90;;
12181;SDS011;6154;51.550;12.138;2023-05-10T00:26:28;3.42;;;3.03;;
12181;SDS011;6154;51.550;12.138;2023-05-10T00:28:57;3.60;;;2.95;;
12181;SDS011;6154;51.550;12.138;2023-05-10T00:31:26;4.82;;;2.92;;
12181;SDS011;6154;51.550;12.138;2023-05-10T00:33:56;3.35;;;2.60;;
12181;SDS011;6154;51.550;12.138;2023-05-10T00:36:24;2.90;;;2.05;;
12181;SDS011;6154;51.550;12.138;2023-05-10T00:38:52;4.55;;;2.80;;
12181;SDS011;6154;51.550;12.138;2023-05-10T00:41:21;3.55;;;2.42;;
12181;SDS011;6154;51.550;12.138;2023-05-10T00:43:49;4.10;;;2.90;;
12181;SDS011;6154;51.550;12.138;2023-05-10T00:46:17;3.65;;;2.53;;
12181;SDS011;6154;51.550;12.138;2023-05-10T00:48:47;3.80;;;2.62;;
12181;SDS011;6154;51.550;12.138;2023-05-10T00:51:17;4.07;;;2.72;;
12181;SDS011;6154;51.550;12.138;2023-05-10T00:53:45;3.55;;;2.72;;
12181;SDS011;6154;51.550;12.138;2023-05-10T00:56:14;6.28;;;3.42;;
12181;SDS011;6154;51.550;12.138;2023-05-10T00:58:43;2.67;;;2.37;;
12181;SDS011;6154;51.550;12.138;2023-05-10T01:01:11;4.53;;;2.80;;
12181;SDS011;6154;51.550;12.138;2023-05-10T01:03:40;3.45;;;2.50;;
12181;SDS011;6154;51.550;12.138;2023-05-10T01:06:09;3.70;;;3.00;;
12181;SDS011;6154;51.550;12.138;2023-05-10T01:08:38;5.32;;;3.12;;
12181;SDS011;6154;51.550;12.138;2023-05-10T01:11:07;3.62;;;2.75;;
12181;SDS011;6154;51.550;12.138;2023-05-10T01:13:36;4.12;;;3.00;;
12181;SDS011;6154;51.550;12.138;2023-05-10T01:16:06;3.47;;;2.67;;
12181;SDS011;6154;51.550;12.138;2023-05-10T01:18:35;4.12;;;2.72;;
12181;SDS011;6154;51.550;12.138;2023-05-10T01:21:11;4.82;;;3.12;;
12181;SDS011;6154;51.550;12.138;2023-05-10T01:24:05;5.37;;;3.70;;
12181;SDS011;6154;51.550;12.138;2023-05-10T01:26:56;6.05;;;2.45;;
12181;SDS011;6154;51.550;12.138;2023-05-10T01:29:53;4.15;;;2.70;;
12181;SDS011;6154;51.550;12.138;2023-05-10T01:32:44;5.93;;;2.97;;
12181;SDS011;6154;51.550;12.138;2023-05-10T01:35:23;4.18;;;2.87;;
12181;SDS011;6154;51.550;12.138;2023-05-10T01:37:58;2.50;;;2.30;;
12181;SDS011;6154;51.550;12.138;2023-05-10T01:40:37;4.18;;;3.28;;
12181;SDS011;6154;51.550;12.138;2023-05-10T01:43:11;4.05;;;2.78;;
12181;SDS011;6154;51.550;12.138;2023-05-10T01:45:47;4.18;;;2.72;;
12181;SDS011;6154;51.550;12.138;2023-05-10T01:48:22;4.22;;;3.25;;
12181;SDS011;6154;51.550;12.138;2023-05-10T01:50:54;3.15;;;2.85;;
12181;SDS011;6154;51.550;12.138;2023-05-10T01:53:25;4.07;;;2.97;;
12181;SDS011;6154;51.550;12.138;2023-05-10T01:55:55;5.57;;;2.90;;
12181;SDS011;6154;51.550;12.138;2023-05-10T01:58:26;4.93;;;3.45;;
12181;SDS011;6154;51.550;12.138;2023-05-10T02:00:57;3.60;;;2.78;;
12181;SDS011;6154;51.550;12.138;2023-05-10T02:03:29;4.85;;;2.87;;
12181;SDS011;6154;51.550;12.138;2023-05-10T02:06:00;4.65;;;3.28;;
12181;SDS011;6154;51.550;12.138;2023-05-10T02:08:30;3.62;;;2.40;;
12181;SDS011;6154;51.550;12.138;2023-05-10T02:10:59;3.80;;;2.90;;
12181;SDS011;6154;51.550;12.138;2023-05-10T02:13:28;3.58;;;2.67;;
12181;SDS011;6154;51.550;12.138;2023-05-10T02:16:00;3.33;;;2.50;;
12181;SDS011;6154;51.550;12.138;2023-05-10T02:18:33;5.85;;;3.55;;
12181;SDS011;6154;51.550;12.138;2023-05-10T02:21:03;3.67;;;2.55;;
12181;SDS011;6154;51.550;12.138;2023-05-10T02:23:32;3.42;;;2.20;;
12181;SDS011;6154;51.550;12.138;2023-05-10T02:26:02;4.07;;;2.95;;
12181;SDS011;6154;51.550;12.138;2023-05-10T02:28:32;4.37;;;2.92;;
12181;SDS011;6154;51.550;12.138;2023-05-10T02:31:01;4.28;;;2.75;;
12181;SDS011;6154;51.550;12.138;2023-05-10T02:33:30;6.53;;;2.87;;
12181;SDS011;6154;51.550;12.138;2023-05-10T02:36:03;5.25;;;3.10;;
12181;SDS011;6154;51.550;12.138;2023-05-10T02:38:32;5.10;;;3.03;;
12181;SDS011;6154;51.550;12.138;2023-05-10T02:41:01;5.03;;;2.95;;
12181;SDS011;6154;51.550;12.138;2023-05-10T02:43:32;4.47;;;2.67;;
12181;SDS011;6154;51.550;12.138;2023-05-10T02:46:01;4.62;;;3.17;;
12181;SDS011;6154;51.550;12.138;2023-05-10T02:48:30;5.25;;;3.37;;
12181;SDS011;6154;51.550;12.138;2023-05-10T02:51:02;4.43;;;2.53;;
12181;SDS011;6154;51.550;12.138;2023-05-10T02:53:35;4.35;;;2.85;;
12181;SDS011;6154;51.550;12.138;2023-05-10T02:56:09;4.20;;;2.87;;
12181;SDS011;6154;51.550;12.138;2023-05-10T02:58:42;3.90;;;2.72;;
12181;SDS011;6154;51.550;12.138;2023-05-10T03:01:10;3.67;;;2.90;;
12181;SDS011;6154;51.550;12.138;2023-05-10T03:03:40;5.90;;;2.75;;
12181;SDS011;6154;51.550;12.138;2023-05-10T03:06:09;4.62;;;2.58;;
12181;SDS011;6154;51.550;12.138;2023-05-10T03:08:37;3.70;;;2.62;;
12181;SDS011;6154;51.550;12.138;2023-05-10T03:11:13;5.78;;;3.58;;
12181;SDS011;6154;51.550;12.138;2023-05-10T03:13:54;4.95;;;3.47;;
12181;SDS011;6154;51.550;12.138;2023-05-10T03:16:34;4.45;;;2.83;;
12181;SDS011;6154;51.550;12.138;2023-05-10T03:19:14;4.05;;;2.83;;
12181;SDS011;6154;51.550;12.138;2023-05-10T03:21:47;3.80;;;2.80;;
12181;SDS011;6154;51.550;12.138;2023-05-10T03:24:20;5.90;;;3.28;;
12181;SDS011;6154;51.550;12.138;2023-05-10T03:26:57;3.20;;;2.12;;
12181;SDS011;6154;51.550;12.138;2023-05-10T03:29:30;5.07;;;2.53;;
12181;SDS011;6154;51.550;12.138;2023-05-10T03:31:59;3.20;;;2.90;;
12181;SDS011;6154;51.550;12.138;2023-05-10T03:34:30;4.78;;;2.80;;
12181;SDS011;6154;51.550;12.138;2023-05-10T03:36:59;6.30;;;2.65;;
12181;SDS011;6154;51.550;12.138;2023-05-10T03:39:28;5.62;;;3.10;;
12181;SDS011;6154;51.550;12.138;2023-05-10T03:41:56;6.87;;;2.80;;
12181;SDS011;6154;51.550;12.138;2023-05-10T03:44:32;4.37;;;2.78;;
12181;SDS011;6154;51.550;12.138;2023-05-10T03:47:00;5.25;;;2.92;;
12181;SDS011;6154;51.550;12.138;2023-05-10T03:49:31;4.47;;;3.05;;
12181;SDS011;6154;51.550;12.138;2023-05-10T03:51:59;3.80;;;2.40;;
12181;SDS011;6154;51.550;12.138;2023-05-10T03:54:27;2.92;;;2.58;;
12181;SDS011;6154;51.550;12.138;2023-05-10T03:56:56;3.37;;;2.42;;
12181;SDS011;6154;51.550;12.138;2023-05-10T03:59:24;3.85;;;3.05;;
12181;SDS011;6154;51.550;12.138;2023-05-10T04:01:53;4.15;;;2.65;;
12181;SDS011;6154;51.550;12.138;2023-05-10T04:04:22;4.65;;;3.10;;
12181;SDS011;6154;51.550;12.138;2023-05-10T04:06:54;4.72;;;2.45;;
12181;SDS011;6154;51.550;12.138;2023-05-10T04:09:22;3.20;;;2.62;;
12181;SDS011;6154;51.550;12.138;2023-05-10T04:11:51;3.80;;;2.85;;
12181;SDS011;6154;51.550;12.138;2023-05-10T04:14:19;4.18;;;3.05;;
12181;SDS011;6154;51.550;12.138;2023-05-10T04:16:47;3.72;;;2.50;;
12181;SDS011;6154;51.550;12.138;2023-05-10T04:19:15;3.30;;;2.58;;
12181;SDS011;6154;51.550;12.138;2023-05-10T04:21:43;2.95;;;2.50;;
12181;SDS011;6154;51.550;12.138;2023-05-10T04:24:13;3.75;;;2.70;;
12181;SDS011;6154;51.550;12.138;2023-05-10T04:26:41;3.75;;;2.47;;
12181;SDS011;6154;51.550;12.138;2023-05-10T04:29:09;4.43;;;3.17;;
12181;SDS011;6154;51.550;12.138;2023-05-10T04:31:37;7.20;;;2.70;;
12181;SDS011;6154;51.550;12.138;2023-05-10T04:34:05;4.78;;;2.95;;
12181;SDS011;6154;51.550;12.138;2023-05-10T04:36:33;4.45;;;2.80;;
12181;SDS011;6154;51.550;12.138;2023-05-10T04:39:03;4.03;;;3.20;;
12181;SDS011;6154;51.550;12.138;2023-05-10T04:41:33;3.45;;;2.85;;
12181;SDS011;6154;51.550;12.138;2023-05-10T04:44:01;3.83;;;2.45;;
12181;SDS011;6154;51.550;12.138;2023-05-10T04:46:29;3.08;;;2.60;;
12181;SDS011;6154;51.550;12.138;2023-05-10T04:48:57;4.15;;;3.05;;
12181;SDS011;6154;51.550;12.138;2023-05-10T04:51:25;8.18;;;2.85;;
12181;SDS011;6154;51.550;12.138;2023-05-10T04:53:54;5.87;;;2.90;;
12181;SDS011;6154;51.550;12.138;2023-05-10T04:56:33;4.35;;;2.95;;
12181;SDS011;6154;51.550;12.138;2023-05-10T04:59:02;5.95;;;3.40;;
12181;SDS011;6154;51.550;12.138;2023-05-10T05:01:30;5.90;;;3.10;;
12181;SDS011;6154;51.550;12.138;2023-05-10T05:03:58;5.72;;;2.80;;
12181;SDS011;6154;51.550;12.138;2023-05-10T05:06:27;3.85;;;3.12;;
12181;SDS011;6154;51.550;12.138;2023-05-10T05:08:55;3.03;;;2.45;;
12181;SDS011;6154;51.550;12.138;2023-05-10T05:11:23;5.55;;;2.95;;
12181;SDS011;6154;51.550;12.138;2023-05-10T05:13:53;2.97;;;2.47;;
12181;SDS011;6154;51.550;12.138;2023-05-10T05:16:21;4.15;;;2.85;;
12181;SDS011;6154;51.550;12.138;2023-05-10T05:18:49;3.72;;;2.80;;
12181;SDS011;6154;51.550;12.138;2023-05-10T05:21:18;5.05;;;3.05;;
12181;SDS011;6154;51.550;12.138;2023-05-10T05:23:48;4.53;;;3.12;;
12181;SDS011;6154;51.550;12.138;2023-05-10T05:26:18;4.32;;;2.80;;
12181;SDS011;6154;51.550;12.138;2023-05-10T05:28:46;3.25;;;2.95;;
12181;SDS011;6154;51.550;12.138;2023-05-10T05:31:16;3.92;;;2.72;;
12181;SDS011;6154;51.550;12.138;2023-05-10T05:33:45;4.85;;;2.62;;
12181;SDS011;6154;51.550;12.138;2023-05-10T05:36:14;4.15;;;2.75;;
12181;SDS011;6154;51.550;12.138;2023-05-10T05:38:42;3.35;;;2.30;;
12181;SDS011;6154;51.550;12.138;2023-05-10T05:41:10;4.47;;;2.50;;
12181;SDS011;6154;51.550;12.138;2023-05-10T05:43:38;3.90;;;2.30;;
12181;SDS011;6154;51.550;12.138;2023-05-10T05:46:06;4.18;;;2.42;;
12181;SDS011;6154;51.550;12.138;2023-05-10T05:48:36;2.60;;;2.22;;
12181;SDS011;6154;51.550;12.138;2023-05-10T05:51:04;3.65;;;2.60;;
12181;SDS011;6154;51.550;12.138;2023-05-10T05:53:33;5.12;;;2.70;;
12181;SDS011;6154;51.550;12.138;2023-05-10T05:56:01;3.87;;;2.65;;
12181;SDS011;6154;51.550;12.138;2023-05-10T05:58:30;2.80;;;2.35;;
12181;SDS011;6154;51.550;12.138;2023-05-10T06:00:59;3.42;;;2.08;;
12181;SDS011;6154;51.550;12.138;2023-05-10T06:03:27;3.53;;;2.67;;
12181;SDS011;6154;51.550;12.138;2023-05-10T06:05:57;3.62;;;2.15;;
12181;SDS011;6154;51.550;12.138;2023-05-10T06:08:24;3.03;;;2.35;;
12181;SDS011;6154;51.550;12.138;2023-05-10T06:10:53;2.50;;;2.17;;
12181;SDS011;6154;51.550;12.138;2023-05-10T06:13:21;3.15;;;2.40;;
12181;SDS011;6154;51.550;12.138;2023-05-10T06:15:49;3.10;;;2.20;;
12181;SDS011;6154;51.550;12.138;2023-05-10T06:18:18;2.42;;;2.15;;
12181;SDS011;6154;51.550;12.138;2023-05-10T06:20:46;2.83;;;2.12;;
12181;SDS011;6154;51.550;12.138;2023-05-10T06:23:15;3.95;;;2.20;;
12181;SDS011;6154;51.550;12.138;2023-05-10T06:25:44;3.08;;;1.75;;
12181;SDS011;6154;51.550;12.138;2023-05-10T06:28:12;1.92;;;1.73;;
12181;SDS011;6154;51.550;12.138;2023-05-10T06:30:40;2.87;;;1.80;;
12181;SDS011;6154;51.550;12.138;2023-05-10T06:33:08;2.45;;;2.08;;
12181;SDS011;6154;51.550;12.138;2023-05-10T06:35:37;2.30;;;1.95;;
12181;SDS011;6154;51.550;12.138;2023-05-10T06:38:05;2.83;;;2.10;;
12181;SDS011;6154;51.550;12.138;2023-05-10T06:40:35;3.22;;;2.28;;
12181;SDS011;6154;51.550;12.138;2023-05-10T06:43:04;3.30;;;2.35;;
12181;SDS011;6154;51.550;12.138;2023-05-10T06:45:32;3.58;;;2.08;;
12181;SDS011;6154;51.550;12.138;2023-05-10T06:48:00;4.97;;;2.15;;
12181;SDS011;6154;51.550;12.138;2023-05-10T06:50:29;2.62;;;1.80;;
12181;SDS011;6154;51.550;12.138;2023-05-10T06:52:57;3.53;;;2.10;;
12181;SDS011;6154;51.550;12.138;2023-05-10T06:55:25;3.12;;;2.15;;
12181;SDS011;6154;51.550;12.138;2023-05-10T06:57:55;3.60;;;2.60;;
12181;SDS011;6154;51.550;12.138;2023-05-10T07:00:23;2.45;;;2.12;;
12181;SDS011;6154;51.550;12.138;2023-05-10T07:02:52;2.20;;;2.00;;
12181;SDS011;6154;51.550;12.138;2023-05-10T07:05:20;4.07;;;2.00;;
12181;SDS011;6154;51.550;12.138;2023-05-10T07:07:49;2.70;;;1.98;;
12181;SDS011;6154;51.550;12.138;2023-05-10T07:10:17;2.65;;;2.05;;
12181;SDS011;6154;51.550;12.138;2023-05-10T07:12:45;2.30;;;1.85;;
12181;SDS011;6154;51.550;12.138;2023-05-10T07:15:15;3.75;;;2.20;;
12181;SDS011;6154;51.550;12.138;2023-05-10T07:17:45;3.10;;;1.98;;
12181;SDS011;6154;51.550;12.138;2023-05-10T07:20:13;4.57;;;1.90;;
12181;SDS011;6154;51.550;12.138;2023-05-10T07:22:41;2.45;;;1.95;;
12181;SDS011;6154;51.550;12.138;2023-05-10T07:25:10;1.98;;;1.80;;
12181;SDS011;6154;51.550;12.138;2023-05-10T07:27:38;3.78;;;2.22;;
12181;SDS011;6154;51.550;12.138;2023-05-10T07:30:06;2.08;;;1.92;;
12181;SDS011;6154;51.550;12.138;2023-05-10T07:32:37;2.55;;;1.83;;
12181;SDS011;6154;51.550;12.138;2023-05-10T07:35:06;3.15;;;2.10;;
12181;SDS011;6154;51.550;12.138;2023-05-10T07:37:34;2.62;;;2.30;;
12181;SDS011;6154;51.550;12.138;2023-05-10T07:40:03;2.35;;;1.90;;
12181;SDS011;6154;51.550;12.138;2023-05-10T07:42:32;2.50;;;1.83;;
12181;SDS011;6154;51.550;12.138;2023-05-10T07:45:00;2.40;;;1.92;;
12181;SDS011;6154;51.550;12.138;2023-05-10T07:47:28;3.72;;;2.00;;
12181;SDS011;6154;51.550;12.138;2023-05-10T07:49:58;3.65;;;1.95;;
12181;SDS011;6154;51.550;12.138;2023-05-10T07:52:26;3.12;;;2.10;;
12181;SDS011;6154;51.550;12.138;2023-05-10T07:54:54;3.20;;;2.47;;
12181;SDS011;6154;51.550;12.138;2023-05-10T07:57:23;2.55;;;2.10;;
12181;SDS011;6154;51.550;12.138;2023-05-10T07:59:51;2.42;;;2.22;;
12181;SDS011;6154;51.550;12.138;2023-05-10T08:02:19;3.90;;;2.12;;
12181;SDS011;6154;51.550;12.138;2023-05-10T08:04:48;3.50;;;1.95;;
12181;SDS011;6154;51.550;12.138;2023-05-10T08:07:17;5.95;;;2.45;;
12181;SDS011;6154;51.550;12.138;2023-05-10T08:09:45;5.43;;;2.28;;
12181;SDS011;6154;51.550;12.138;2023-05-10T08:12:13;2.92;;;2.45;;
12181;SDS011;6154;51.550;12.138;2023-05-10T08:14:42;2.12;;;1.92;;
12181;SDS011;6154;51.550;12.138;2023-05-10T08:17:10;3.90;;;2.30;;
12181;SDS011;6154;51.550;12.138;2023-05-10T08:19:38;2.55;;;2.35;;
12181;SDS011;6154;51.550;12.138;2023-05-10T08:22:06;2.00;;;1.80;;
12181;SDS011;6154;51.550;12.138;2023-05-10T08:24:36;3.47;;;2.45;;
12181;SDS011;6154;51.550;12.138;2023-05-10T08:27:07;12.68;;;2.67;;
12181;SDS011;6154;51.550;12.138;2023-05-10T08:29:36;5.82;;;2.20;;
12181;SDS011;6154;51.550;12.138;2023-05-10T08:32:15;2.17;;;1.95;;
12181;SDS011;6154;51.550;12.138;2023-05-10T08:34:43;3.25;;;2.10;;
12181;SDS011;6154;51.550;12.138;2023-05-10T08:37:11;2.10;;;1.90;;
12181;SDS011;6154;51.550;12.138;2023-05-10T08:39:41;3.37;;;2.25;;
12181;SDS011;6154;51.550;12.138;2023-05-10T08:42:09;2.28;;;2.05;;
12181;SDS011;6154;51.550;12.138;2023-05-10T08:44:39;2.78;;;2.22;;
12181;SDS011;6154;51.550;12.138;2023-05-10T08:47:08;4.03;;;2.62;;
12181;SDS011;6154;51.550;12.138;2023-05-10T08:49:38;8.02;;;2.55;;
12181;SDS011;6154;51.550;12.138;2023-05-10T08:52:07;7.62;;;2.22;;
12181;SDS011;6154;51.550;12.138;2023-05-10T08:54:36;3.50;;;2.00;;
12181;SDS011;6154;51.550;12.138;2023-05-10T08:57:05;2.65;;;2.12;;
12181;SDS011;6154;51.550;12.138;2023-05-10T08:59:34;2.42;;;1.80;;
12181;SDS011;6154;51.550;12.138;2023-05-10T09:02:02;2.70;;;2.22;;
12181;SDS011;6154;51.550;12.138;2023-05-10T09:04:32;2.53;;;2.28;;
12181;SDS011;6154;51.550;12.138;2023-05-10T09:07:00;3.40;;;2.12;;
12181;SDS011;6154;51.550;12.138;2023-05-10T09:09:29;3.53;;;2.47;;
12181;SDS011;6154;51.550;12.138;2023-05-10T09:11:59;3.33;;;2.35;;
12181;SDS011;6154;51.550;12.138;2023-05-10T09:14:28;3.00;;;2.65;;
12181;SDS011;6154;51.550;12.138;2023-05-10T09:16:57;3.55;;;2.35;;
12181;SDS011;6154;51.550;12.138;2023-05-10T09:19:25;2.62;;;2.28;;
12181;SDS011;6154;51.550;12.138;2023-05-10T09:21:53;2.50;;;2.30;;
12181;SDS011;6154;51.550;12.138;2023-05-10T09:24:24;5.75;;;2.53;;
12181;SDS011;6154;51.550;12.138;2023-05-10T09:26:53;3.30;;;2.40;;
12181;SDS011;6154;51.550;12.138;2023-05-10T09:29:24;2.72;;;2.50;;
12181;SDS011;6154;51.550;12.138;2023-05-10T09:31:54;2.75;;;2.28;;
12181;SDS011;6154;51.550;12.138;2023-05-10T09:34:32;3.80;;;2.47;;
12181;SDS011;6154;51.550;12.138;2023-05-10T09:37:02;3.60;;;2.62;;
12181;SDS011;6154;51.550;12.138;2023-05-10T09:39:31;2.53;;;2.33;;
12181;SDS011;6154;51.550;12.138;2023-05-10T09:42:02;2.92;;;2.35;;
12181;SDS011;6154;51.550;12.138;2023-05-10T09:44:33;4.03;;;2.60;;
12181;SDS011;6154;51.550;12.138;2023-05-10T09:47:03;11.30;;;2.58;;
12181;SDS011;6154;51.550;12.138;2023-05-10T09:49:32;4.25;;;2.25;;
12181;SDS011;6154;51.550;12.138;2023-05-10T09:52:01;4.90;;;2.60;;
12181;SDS011;6154;51.550;12.138;2023-05-10T09:54:30;5.85;;;2.67;;
12181;SDS011;6154;51.550;12.138;2023-05-10T09:56:59;3.00;;;2.70;;
12181;SDS011;6154;51.550;12.138;2023-05-10T09:59:28;2.87;;;2.58;;
12181;SDS011;6154;51.550;12.138;2023-05-10T10:01:57;3.70;;;3.15;;
12181;SDS011;6154;51.550;12.138;2023-05-10T10:04:29;5.97;;;2.33;;
12181;SDS011;6154;51.550;12.138;2023-05-10T10:07:00;2.87;;;2.50;;
12181;SDS011;6154;51.550;12.138;2023-05-10T10:09:30;3.20;;;2.80;;
12181;SDS011;6154;51.550;12.138;2023-05-10T10:11:59;3.30;;;3.00;;
12181;SDS011;6154;51.550;12.138;2023-05-10T10:14:27;3.87;;;2.80;;
12181;SDS011;6154;51.550;12.138;2023-05-10T10:16:56;4.53;;;3.08;;
12181;SDS011;6154;51.550;12.138;2023-05-10T10:19:31;3.80;;;2.90;;
12181;SDS011;6154;51.550;12.138;2023-05-10T10:22:02;3.83;;;3.22;;
12181;SDS011;6154;51.550;12.138;2023-05-10T10:24:31;5.50;;;3.00;;
12181;SDS011;6154;51.550;12.138;2023-05-10T10:27:01;6.28;;;3.33;;
12181;SDS011;6154;51.550;12.138;2023-05-10T10:29:39;3.28;;;2.75;;
12181;SDS011;6154;51.550;12.138;2023-05-10T10:32:18;6.18;;;3.28;;
12181;SDS011;6154;51.550;12.138;2023-05-10T10:34:55;4.62;;;3.17;;
12181;SDS011;6154;51.550;12.138;2023-05-10T10:37:24;6.05;;;3.25;;
12181;SDS011;6154;51.550;12.138;2023-05-10T10:40:23;3.25;;;2.95;;
12181;SDS011;6154;51.550;12.138;2023-05-10T10:42:54;4.20;;;3.40;;
12181;SDS011;6154;51.550;12.138;2023-05-10T10:45:24;4.93;;;3.08;;
12181;SDS011;6154;51.550;12.138;2023-05-10T10:50:57;4.05;;;3.22;;
12181;SDS011;6154;51.550;12.138;2023-05-10T10:53:25;3.87;;;3.30;;
12181;SDS011;6154;51.550;12.138;2023-05-10T10:56:02;4.37;;;3.22;;
12181;SDS011;6154;51.550;12.138;2023-05-10T10:58:34;4.28;;;3.33;;
12181;SDS011;6154;51.550;12.138;2023-05-10T11:01:10;4.53;;;3.00;;
12181;SDS011;6154;51.550;12.138;2023-05-10T11:03:54;4.55;;;3.25;;
12181;SDS011;6154;51.550;12.138;2023-05-10T11:06:39;4.80;;;3.05;;
12181;SDS011;6154;51.550;12.138;2023-05-10T11:09:09;5.00;;;3.65;;
12181;SDS011;6154;51.550;12.138;2023-05-10T11:11:48;5.18;;;3.28;;
12181;SDS011;6154;51.550;12.138;2023-05-10T11:14:19;3.85;;;3.22;;
12181;SDS011;6154;51.550;12.138;2023-05-10T11:16:49;4.85;;;3.47;;
12181;SDS011;6154;51.550;12.138;2023-05-10T11:19:18;4.60;;;3.55;;
12181;SDS011;6154;51.550;12.138;2023-05-10T11:21:48;5.25;;;3.35;;
12181;SDS011;6154;51.550;12.138;2023-05-10T11:24:20;3.10;;;2.75;;
12181;SDS011;6154;51.550;12.138;2023-05-10T11:26:50;4.28;;;3.00;;
12181;SDS011;6154;51.550;12.138;2023-05-10T11:29:19;4.10;;;3.20;;
12181;SDS011;6154;51.550;12.138;2023-05-10T11:31:48;4.18;;;3.10;;
12181;SDS011;6154;51.550;12.138;2023-05-10T11:34:23;4.65;;;3.35;;
12181;SDS011;6154;51.550;12.138;2023-05-10T11:36:54;5.50;;;3.28;;
12181;SDS011;6154;51.550;12.138;2023-05-10T11:39:25;7.37;;;3.72;;
12181;SDS011;6154;51.550;12.138;2023-05-10T11:41:54;3.85;;;3.40;;
12181;SDS011;6154;51.550;12.138;2023-05-10T11:44:22;4.18;;;3.30;;
12181;SDS011;6154;51.550;12.138;2023-05-10T11:46:51;4.40;;;2.75;;
12181;SDS011;6154;51.550;12.138;2023-05-10T11:49:20;4.40;;;3.40;;
12181;SDS011;6154;51.550;12.138;2023-05-10T11:51:51;5.55;;;3.42;;
12181;SDS011;6154;51.550;12.138;2023-05-10T11:54:21;4.78;;;3.75;;
12181;SDS011;6154;51.550;12.138;2023-05-10T11:56:49;3.95;;;3.55;;
12181;SDS011;6154;51.550;12.138;2023-05-10T11:59:17;4.32;;;3.75;;
12181;SDS011;6154;51.550;12.138;2023-05-10T12:01:46;5.15;;;3.65;;
12181;SDS011;6154;51.550;12.138;2023-05-10T12:04:14;5.00;;;3.85;;
12181;SDS011;6154;51.550;12.138;2023-05-10T12:06:43;7.03;;;3.92;;
12181;SDS011;6154;51.550;12.138;2023-05-10T12:09:13;4.53;;;3.20;;
12181;SDS011;6154;51.550;12.138;2023-05-10T12:11:46;5.82;;;3.58;;
12181;SDS011;6154;51.550;12.138;2023-05-10T12:14:14;4.82;;;3.92;;
12181;SDS011;6154;51.550;12.138;2023-05-10T12:16:43;5.03;;;3.83;;
12181;SDS011;6154;51.550;12.138;2023-05-10T12:19:11;5.72;;;3.80;;
12181;SDS011;6154;51.550;12.138;2023-05-10T12:21:39;4.40;;;3.87;;
12181;SDS011;6154;51.550;12.138;2023-05-10T12:24:08;5.15;;;3.83;;
12181;SDS011;6154;51.550;12.138;2023-05-10T12:26:37;4.68;;;3.87;;
12181;SDS011;6154;51.550;12.138;2023-05-10T12:29:12;4.35;;;3.67;;
12181;SDS011;6154;51.550;12.138;2023-05-10T12:31:49;4.93;;;3.75;;
12181;SDS011;6154;51.550;12.138;2023-05-10T12:34:29;4.15;;;3.75;;
12181;SDS011;6154;51.550;12.138;2023-05-10T12:37:00;4.40;;;3.75;;
12181;SDS011;6154;51.550;12.138;2023-05-10T12:39:38;4.22;;;3.83;;
12181;SDS011;6154;51.550;12.138;2023-05-10T12:42:07;4.60;;;3.28;;
12181;SDS011;6154;51.550;12.138;2023-05-10T12:44:36;5.35;;;3.50;;
12181;SDS011;6154;51.550;12.138;2023-05-10T12:47:04;4.32;;;3.70;;
12181;SDS011;6154;51.550;12.138;2023-05-10T12:49:33;3.28;;;2.97;;
12181;SDS011;6154;51.550;12.138;2023-05-10T12:52:01;6.07;;;4.00;;
12181;SDS011;6154;51.550;12.138;2023-05-10T12:54:30;4.22;;;3.58;;
12181;SDS011;6154;51.550;12.138;2023-05-10T12:56:58;4.20;;;3.78;;
12181;SDS011;6154;51.550;12.138;2023-05-10T12:59:26;3.70;;;3.30;;
12181;SDS011;6154;51.550;12.138;2023-05-10T13:01:56;4.30;;;3.90;;
12181;SDS011;6154;51.550;12.138;2023-05-10T13:04:25;4.93;;;3.62;;
12181;SDS011;6154;51.550;12.138;2023-05-10T13:06:53;4.40;;;3.67;;
12181;SDS011;6154;51.550;12.138;2023-05-10T13:09:22;5.72;;;3.50;;
12181;SDS011;6154;51.550;12.138;2023-05-10T13:11:51;3.85;;;3.47;;
12181;SDS011;6154;51.550;12.138;2023-05-10T13:14:20;4.37;;;3.45;;
12181;SDS011;6154;51.550;12.138;2023-05-10T13:16:49;3.92;;;3.42;;
12181;SDS011;6154;51.550;12.138;2023-05-10T13:19:18;5.32;;;3.78;;
12181;SDS011;6154;51.550;12.138;2023-05-10T13:21:49;6.43;;;3.67;;
12181;SDS011;6154;51.550;12.138;2023-05-10T13:24:18;6.10;;;3.92;;
12181;SDS011;6154;51.550;12.138;2023-05-10T13:26:46;4.47;;;3.70;;
12181;SDS011;6154;51.550;12.138;2023-05-10T13:29:15;4.55;;;3.90;;
12181;SDS011;6154;51.550;12.138;2023-05-10T13:31:45;4.72;;;3.62;;
12181;SDS011;6154;51.550;12.138;2023-05-10T13:34:13;4.03;;;3.62;;
12181;SDS011;6154;51.550;12.138;2023-05-10T13:36:42;5.57;;;3.78;;
12181;SDS011;6154;51.550;12.138;2023-05-10T13:39:11;5.00;;;4.00;;
12181;SDS011;6154;51.550;12.138;2023-05-10T13:41:40;4.45;;;3.87;;
12181;SDS011;6154;51.550;12.138;2023-05-10T13:44:08;4.72;;;3.83;;
12181;SDS011;6154;51.550;12.138;2023-05-10T13:46:36;4.28;;;3.58;;
12181;SDS011;6154;51.550;12.138;2023-05-10T13:49:05;5.15;;;3.62;;
12181;SDS011;6154;51.550;12.138;2023-05-10T13:51:34;5.97;;;3.90;;
12181;SDS011;6154;51.550;12.138;2023-05-10T13:54:04;6.32;;;3.78;;
12181;SDS011;6154;51.550;12.138;2023-05-10T13:56:32;4.35;;;3.50;;
12181;SDS011;6154;51.550;12.138;2023-05-10T13:59:01;4.50;;;3.95;;
12181;SDS011;6154;51.550;12.138;2023-05-10T14:01:29;3.35;;;3.00;;
12181;SDS011;6154;51.550;12.138;2023-05-10T14:03:58;3.80;;;2.80;;
12181;SDS011;6154;51.550;12.138;2023-05-10T14:06:26;3.17;;;2.83;;
12181;SDS011;6154;51.550;12.138;2023-05-10T14:08:54;5.50;;;3.15;;
12181;SDS011;6154;51.550;12.138;2023-05-10T14:11:24;3.17;;;2.58;;
12181;SDS011;6154;51.550;12.138;2023-05-10T14:13:52;3.15;;;2.67;;
12181;SDS011;6154;51.550;12.138;2023-05-10T14:16:21;2.72;;;2.33;;
12181;SDS011;6154;51.550;12.138;2023-05-10T14:18:49;2.92;;;1.50;;
12181;SDS011;6154;51.550;12.138;2023-05-10T14:21:17;1.10;;;1.00;;
12181;SDS011;6154;51.550;12.138;2023-05-10T14:23:45;1.12;;;1.00;;
12181;SDS011;6154;51.550;12.138;2023-05-10T14:26:13;1.98;;;0.95;;
12181;SDS011;6154;51.550;12.138;2023-05-10T14:28:43;0.70;;;0.60;;
12181;SDS011;6154;51.550;12.138;2023-05-10T14:31:11;0.55;;;0.43;;
12181;SDS011;6154;51.550;12.138;2023-05-10T14:33:41;1.15;;;0.47;;
12181;SDS011;6154;51.550;12.138;2023-05-10T14:36:09;0.22;;;0.22;;
12181;SDS011;6154;51.550;12.138;2023-05-10T14:38:37;1.30;;;0.40;;
12181;SDS011;6154;51.550;12.138;2023-05-10T14:41:07;0.45;;;0.30;;
12181;SDS011;6154;51.550;12.138;2023-05-10T14:43:37;0.35;;;0.30;;
12181;SDS011;6154;51.550;12.138;2023-05-10T14:46:15;0.90;;;0.32;;
12181;SDS011;6154;51.550;12.138;2023-05-10T14:48:46;0.40;;;0.40;;
12181;SDS011;6154;51.550;12.138;2023-05-10T14:51:14;0.70;;;0.47;;
12181;SDS011;6154;51.550;12.138;2023-05-10T14:53:43;1.55;;;0.60;;
12181;SDS011;6154;51.550;12.138;2023-05-10T14:56:12;3.30;;;0.52;;
12181;SDS011;6154;51.550;12.138;2023-05-10T14:58:41;0.68;;;0.60;;
12181;SDS011;6154;51.550;12.138;2023-05-10T15:01:10;0.80;;;0.65;;
12181;SDS011;6154;51.550;12.138;2023-05-10T15:03:43;0.90;;;0.47;;
12181;SDS011;6154;51.550;12.138;2023-05-10T15:06:23;1.37;;;0.70;;
12181;SDS011;6154;51.550;12.138;2023-05-10T15:08:59;0.82;;;0.60;;